createdAt,value
2019-02-05T00:00:37.422Z,102202.04
2019-02-05T00:03:08.177Z,102200.83
2019-02-05T00:05:37.047Z,102197.38
2019-02-05T00:08:06.036Z,102202.16
2019-02-05T00:10:34.896Z,102198.88
2019-02-05T00:13:04.343Z,102201.88
2019-02-05T00:15:33.491Z,102199.92
2019-02-05T00:18:02.351Z,102207.16
2019-02-05T00:20:31.235Z,102205.27
2019-02-05T00:23:00.100Z,102206.25
2019-02-05T00:25:28.963Z,102196.31
2019-02-05T00:27:57.858Z,102198.06
2019-02-05T00:30:27.083Z,102198.28
2019-02-05T00:32:55.953Z,102199.09
2019-02-05T00:35:24.795Z,102184.52
2019-02-05T00:37:53.700Z,102193.60
2019-02-05T00:40:22.567Z,102191.88
2019-02-05T00:42:51.409Z,102188.64
2019-02-05T00:45:20.993Z,102190.38
2019-02-05T00:47:49.902Z,102180.81
2019-02-05T00:50:20.093Z,102172.92
2019-02-05T00:52:48.958Z,102180.46
2019-02-05T00:55:20.891Z,102180.91
2019-02-05T00:57:49.745Z,102178.86
2019-02-05T01:00:24.555Z,102176.53
2019-02-05T01:02:53.490Z,102177.52
2019-02-05T01:05:22.503Z,102169.91
2019-02-05T01:07:51.501Z,102169.63
2019-02-05T01:10:21.836Z,102172.41
2019-02-05T01:12:50.758Z,102162.91
2019-02-05T01:15:22.628Z,102163.62
2019-02-05T01:17:51.950Z,102168.51
2019-02-05T01:20:21.956Z,102161.64
2019-02-05T01:22:50.986Z,102153.23
2019-02-05T01:25:21.013Z,102140.22
2019-02-05T01:27:50.312Z,102145.08
2019-02-05T01:30:21.719Z,102142.39
2019-02-05T01:32:50.859Z,102139.49
2019-02-05T01:35:19.783Z,102135.05
2019-02-05T01:37:48.707Z,102144.77
2019-02-05T01:40:20.126Z,102136.38
2019-02-05T01:42:48.977Z,102136.05
2019-02-05T01:45:19.191Z,102130.26
2019-02-05T01:47:48.041Z,102123.42
2019-02-05T01:50:22.687Z,102121.80
2019-02-05T01:52:51.547Z,102123.77
2019-02-05T01:55:20.760Z,102117.99
2019-02-05T01:57:49.640Z,102113.12
2019-02-05T02:00:24.305Z,102114.00
2019-02-05T02:02:53.499Z,102107.87
2019-02-05T02:05:22.419Z,102106.43
2019-02-05T02:07:51.261Z,102094.81
2019-02-05T02:10:22.840Z,102099.65
2019-02-05T02:12:52.085Z,102090.77
2019-02-05T02:15:21.085Z,102085.34
2019-02-05T02:17:50.101Z,102088.02
2019-02-05T02:20:22.572Z,102082.80
2019-02-05T02:22:51.552Z,102084.80
2019-02-05T02:25:20.565Z,102081.51
2019-02-05T02:27:50.361Z,102088.36
2019-02-05T02:30:25.295Z,102083.50
2019-02-05T02:32:54.166Z,102084.11
2019-02-05T02:35:23.010Z,102090.73
2019-02-05T02:37:52.461Z,102087.13
2019-02-05T02:40:21.299Z,102084.69
2019-02-05T02:42:50.611Z,102089.41
2019-02-05T02:45:19.580Z,102086.55
2019-02-05T02:47:48.500Z,102082.62
2019-02-05T02:50:21.914Z,102086.31
2019-02-05T02:52:51.911Z,102086.12
2019-02-05T02:55:20.838Z,102080.83
2019-02-05T02:57:49.693Z,102088.94
2019-02-05T03:00:20.711Z,102088.28
2019-02-05T03:02:51.301Z,102095.02
2019-02-05T03:05:22.477Z,102096.72
2019-02-05T03:07:51.417Z,102097.35
2019-02-05T03:10:23.081Z,102099.80
2019-02-05T03:12:52.103Z,102100.04
2019-02-05T03:15:21.130Z,102097.48
2019-02-05T03:17:50.156Z,102098.59
2019-02-05T03:20:19.271Z,102101.20
2019-02-05T03:22:48.132Z,102097.20
2019-02-05T03:25:20.323Z,102082.19
2019-02-05T03:27:49.233Z,102083.51
2019-02-05T03:30:20.472Z,102082.38
2019-02-05T03:32:49.570Z,102082.55
2019-02-05T03:35:18.865Z,102083.31
2019-02-05T03:37:47.790Z,102084.36
2019-02-05T03:40:28.835Z,102084.41
2019-02-05T03:42:57.749Z,102079.44
2019-02-05T03:45:29.429Z,102080.06
2019-02-05T03:48:03.779Z,102080.67
2019-02-05T03:50:35.687Z,102081.95
2019-02-05T03:53:07.979Z,102082.50
2019-02-05T03:56:00.830Z,102086.34
2019-02-05T03:58:38.537Z,102081.95
2019-02-05T04:01:34.859Z,102071.98
2019-02-05T04:04:09.327Z,102075.36
2019-02-05T04:06:57.860Z,102072.65
2019-02-05T04:09:41.759Z,102074.16
2019-02-05T04:12:34.992Z,102081.88
2019-02-05T04:15:24.963Z,102080.25
2019-02-05T04:18:11.797Z,102079.82
2019-02-05T04:20:59.199Z,102076.53
2019-02-05T04:23:47.829Z,102082.38
2019-02-05T04:26:28.452Z,102079.48
2019-02-05T04:29:09.323Z,102068.58
2019-02-05T04:31:53.140Z,102077.92
2019-02-05T04:34:41.526Z,102070.32
2019-02-05T04:37:22.268Z,102064.50
2019-02-05T04:39:54.206Z,102055.84
2019-02-05T04:42:28.758Z,102051.89
2019-02-05T04:45:33.754Z,102049.84
2019-02-05T04:48:01.703Z,102050.62
2019-02-05T04:50:54.863Z,102063.05
2019-02-05T04:53:35.653Z,102074.73
2019-02-05T04:56:13.573Z,102076.95
2019-02-05T04:58:57.442Z,102076.83
2019-02-05T05:01:34.958Z,102076.77
2019-02-05T05:04:24.966Z,102074.35
2019-02-05T05:07:02.671Z,102072.88
2019-02-05T05:09:39.679Z,102073.58
2019-02-05T05:12:08.574Z,102068.48
2019-02-05T05:14:37.436Z,102061.02
2019-02-05T05:17:06.298Z,102068.63
2019-02-05T05:19:35.349Z,102063.52
2019-02-05T05:22:04.374Z,102062.60
2019-02-05T05:24:33.488Z,102062.38
2019-02-05T05:27:02.505Z,102062.12
2019-02-05T05:29:33.174Z,102067.02
2019-02-05T05:32:02.118Z,102061.82
2019-02-05T05:34:31.011Z,102059.22
2019-02-05T05:36:59.127Z,102051.31
2019-02-05T05:39:27.980Z,102054.73
2019-02-05T05:41:56.863Z,102049.14
2019-02-05T05:44:25.745Z,102041.51
2019-02-05T05:46:54.616Z,102043.17
2019-02-05T05:49:23.813Z,102044.34
2019-02-05T05:51:52.663Z,102042.16
2019-02-05T05:54:21.527Z,102047.20
2019-02-05T05:56:50.414Z,102045.20
2019-02-05T05:59:20.223Z,102050.85
2019-02-05T06:01:49.078Z,102051.59
2019-02-05T06:04:17.964Z,102058.92
2019-02-05T06:06:46.817Z,102055.78
2019-02-05T06:09:15.691Z,102047.95
2019-02-05T06:11:44.547Z,102059.04
2019-02-05T06:14:13.410Z,102054.81
2019-02-05T06:16:42.316Z,102058.92
2019-02-05T06:19:11.186Z,102062.38
2019-02-05T06:21:40.432Z,102060.94
2019-02-05T06:24:09.286Z,102073.84
2019-02-05T06:26:38.188Z,102066.52
2019-02-05T06:29:07.070Z,102068.38
2019-02-05T06:31:35.923Z,102071.76
2019-02-05T06:34:05.141Z,102058.72
2019-02-05T06:36:34.003Z,102061.41
2019-02-05T06:39:04.834Z,102063.03
2019-02-05T06:41:33.699Z,102059.69
2019-02-05T06:44:02.589Z,102059.03
2019-02-05T06:46:31.458Z,102064.20
2019-02-05T06:49:00.337Z,102064.16
2019-02-05T06:51:29.230Z,102068.38
2019-02-05T06:53:58.117Z,102068.84
2019-02-05T06:56:27.005Z,102072.36
2019-02-05T06:58:55.875Z,102077.91
2019-02-05T07:01:24.738Z,102077.57
2019-02-05T07:03:53.645Z,102083.88
2019-02-05T07:06:22.502Z,102083.71
2019-02-05T07:08:51.355Z,102083.70
2019-02-05T07:11:20.622Z,102085.06
2019-02-05T07:13:49.497Z,102094.36
2019-02-05T07:16:18.372Z,102093.82
2019-02-05T07:18:47.283Z,102094.13
2019-02-05T07:21:16.149Z,102105.48
2019-02-05T07:23:45.006Z,102113.20
2019-02-05T07:26:13.897Z,102113.20
2019-02-05T07:28:43.246Z,102115.30
2019-02-05T07:31:12.184Z,102112.36
2019-02-05T07:33:41.099Z,102117.92
2019-02-05T07:36:09.986Z,102119.44
2019-02-05T07:38:38.862Z,102116.64
2019-02-05T07:41:07.731Z,102126.65
2019-02-05T07:43:36.580Z,102121.22
2019-02-05T07:46:05.805Z,102115.53
2019-02-05T07:48:34.640Z,102128.50
2019-02-05T07:51:03.570Z,102119.17
2019-02-05T07:53:33.306Z,102126.98
2019-02-05T07:56:02.268Z,102122.69
2019-02-05T07:58:31.136Z,102120.12
2019-02-05T08:01:00.010Z,102119.06
2019-02-05T08:03:29.063Z,102125.73
2019-02-05T08:05:57.961Z,102125.52
2019-02-05T08:08:26.997Z,102130.88
2019-02-05T08:10:55.868Z,102128.02
2019-02-05T08:13:24.735Z,102132.84
2019-02-05T08:15:53.618Z,102138.47
2019-02-05T08:18:22.587Z,102133.99
2019-02-05T08:20:51.452Z,102135.88
2019-02-05T08:23:20.609Z,102133.58
2019-02-05T08:25:49.469Z,102133.36
2019-02-05T08:28:18.364Z,102137.84
2019-02-05T08:30:49.062Z,102133.48
2019-02-05T08:33:17.937Z,102130.91
2019-02-05T08:35:46.804Z,102137.89
2019-02-05T08:38:15.680Z,102139.27
2019-02-05T08:40:44.920Z,102138.17
2019-02-05T08:43:14.353Z,102141.22
2019-02-05T08:45:43.494Z,102142.41
2019-02-05T08:48:13.617Z,102138.55
2019-02-05T08:50:43.016Z,102139.82
2019-02-05T08:53:11.917Z,102141.78
2019-02-05T08:55:40.802Z,102136.41
2019-02-05T08:58:14.307Z,102152.47
2019-02-05T09:00:43.828Z,102151.28
2019-02-05T09:03:13.735Z,102147.92
2019-02-05T09:05:42.635Z,102154.03
2019-02-05T09:08:11.514Z,102155.61
2019-02-05T09:10:42.016Z,102161.91
2019-02-05T09:13:11.323Z,102159.16
2019-02-05T09:15:40.249Z,102162.60
2019-02-05T09:18:09.404Z,102162.86
2019-02-05T09:20:38.317Z,102166.30
2019-02-05T09:23:07.607Z,102171.22
2019-02-05T09:25:36.497Z,102160.78
2019-02-05T09:28:05.623Z,102176.75
2019-02-05T09:30:38.093Z,102167.85
2019-02-05T09:33:10.160Z,102186.19
2019-02-05T09:35:39.050Z,102169.70
2019-02-05T09:38:07.927Z,102181.15
2019-02-05T09:40:36.936Z,102182.20
2019-02-05T09:43:05.821Z,102175.89
2019-02-05T09:45:35.133Z,102166.17
2019-02-05T09:48:04.387Z,102175.39
2019-02-05T09:50:44.390Z,102169.91
2019-02-05T09:53:04.011Z,102175.84
2019-02-05T09:55:35.872Z,102175.69
2019-02-05T09:58:03.485Z,102176.19
2019-02-05T10:00:35.164Z,102178.66
2019-02-05T10:03:04.841Z,102182.77
2019-02-05T10:05:34.911Z,102192.55
2019-02-05T10:08:04.178Z,102192.80
2019-02-05T10:10:33.129Z,102200.76
2019-02-05T10:13:02.030Z,102211.56
2019-02-05T10:15:36.136Z,102200.51
2019-02-05T10:18:06.871Z,102201.05
2019-02-05T10:20:35.737Z,102197.98
2019-02-05T10:23:05.452Z,102192.59
2019-02-05T10:25:34.424Z,102197.03
2019-02-05T10:28:03.352Z,102197.69
2019-02-05T10:30:34.763Z,102199.66
2019-02-05T10:33:04.963Z,102192.45
2019-02-05T10:35:33.859Z,102193.66
2019-02-05T10:38:02.871Z,102191.52
2019-02-05T10:40:31.782Z,102191.80
2019-02-05T10:43:00.830Z,102195.95
2019-02-05T10:45:29.929Z,102193.84
2019-02-05T10:47:58.832Z,102196.70
2019-02-05T10:50:27.728Z,102191.59
2019-02-05T10:52:56.652Z,102192.59
2019-02-05T10:55:25.540Z,102194.40
2019-02-05T10:57:55.864Z,102187.23
2019-02-05T11:00:27.456Z,102184.27
2019-02-05T11:02:58.879Z,102189.53
2019-02-05T11:05:29.495Z,102180.26
2019-02-05T11:07:58.444Z,102178.97
2019-02-05T11:10:27.346Z,102186.70
2019-02-05T11:12:56.289Z,102184.77
2019-02-05T11:15:30.168Z,102180.78
2019-02-05T11:17:59.186Z,102184.38
2019-02-05T11:20:28.926Z,102184.50
2019-02-05T11:22:58.638Z,102186.18
2019-02-05T11:25:27.856Z,102176.41
2019-02-05T11:27:56.743Z,102182.31
2019-02-05T11:30:39.931Z,102181.79
2019-02-05T11:33:08.820Z,102179.75
2019-02-05T11:35:37.701Z,102179.75
2019-02-05T11:38:07.749Z,102180.38
2019-02-05T11:40:38.449Z,102175.35
2019-02-05T11:43:07.357Z,102178.16
2019-02-05T11:45:36.349Z,102182.56
2019-02-05T11:48:08.264Z,102183.84
2019-02-05T11:50:37.519Z,102179.98
2019-02-05T11:53:06.451Z,102176.47
2019-02-05T11:55:35.920Z,102183.45
2019-02-05T11:58:05.305Z,102184.86
2019-02-05T12:00:44.687Z,102180.26
2019-02-05T12:03:13.599Z,102181.00
2019-02-05T12:05:42.523Z,102174.58
2019-02-05T12:08:11.407Z,102180.72
2019-02-05T12:10:40.327Z,102178.45
2019-02-05T12:13:09.168Z,102180.65
2019-02-05T12:15:38.187Z,102190.13
2019-02-05T12:18:07.189Z,102181.39
2019-02-05T12:20:36.067Z,102184.09
2019-02-05T12:23:07.335Z,102174.19
2019-02-05T12:25:36.217Z,102182.80
2019-02-05T12:28:05.935Z,102182.03
2019-02-05T12:30:45.132Z,102178.69
2019-02-05T12:33:10.839Z,102176.23
2019-02-05T12:35:39.757Z,102178.13
2019-02-05T12:38:09.052Z,102174.05
2019-02-05T12:40:38.015Z,102177.38
2019-02-05T12:43:06.910Z,102177.09
2019-02-05T12:45:37.424Z,102175.55
2019-02-05T12:48:06.940Z,102171.42
2019-02-05T12:50:38.430Z,102179.73
2019-02-05T12:53:07.573Z,102174.98
2019-02-05T12:55:36.580Z,102176.64
2019-02-05T12:58:06.515Z,102172.38
2019-02-05T13:00:42.575Z,102174.93
2019-02-05T13:03:12.275Z,102173.44
2019-02-05T13:05:42.559Z,102171.59
2019-02-05T13:08:11.681Z,102175.11
2019-02-05T13:10:45.797Z,102171.88
2019-02-05T13:13:18.006Z,102171.83
2019-02-05T13:15:45.321Z,102172.33
2019-02-05T13:18:13.908Z,102173.85
2019-02-05T13:20:42.743Z,102180.90
2019-02-05T13:23:11.759Z,102175.95
2019-02-05T13:25:40.416Z,102179.23
2019-02-05T13:28:10.321Z,102184.68
2019-02-05T13:30:39.561Z,102185.44
2019-02-05T13:33:10.069Z,102177.22
2019-02-05T13:35:39.489Z,102187.88
2019-02-05T13:38:08.746Z,102190.90
2019-02-05T13:40:37.728Z,102194.84
2019-02-05T13:43:07.189Z,102192.11
2019-02-05T13:45:38.794Z,102192.84
2019-02-05T13:48:07.665Z,102194.17
2019-02-05T13:50:37.009Z,102195.86
2019-02-05T13:53:06.915Z,102187.93
2019-02-05T13:55:38.475Z,102193.30
2019-02-05T13:58:07.421Z,102197.41
2019-02-05T14:00:45.071Z,102190.84
2019-02-05T14:03:13.940Z,102200.13
2019-02-05T14:05:43.758Z,102201.13
2019-02-05T14:08:12.715Z,102194.32
2019-02-05T14:10:46.211Z,102199.75
2019-02-05T14:13:15.482Z,102197.80
2019-02-05T14:15:46.864Z,102206.32
2019-02-05T14:18:15.736Z,102207.73
2019-02-05T14:20:44.727Z,102206.70
2019-02-05T14:23:13.590Z,102199.19
2019-02-05T14:25:42.642Z,102209.11
2019-02-05T14:28:11.508Z,102207.07
2019-02-05T14:30:51.501Z,102213.64
2019-02-05T14:33:21.283Z,102216.69
2019-02-05T14:35:50.178Z,102217.48
2019-02-05T14:38:19.110Z,102220.32
2019-02-05T14:40:47.985Z,102218.78
2019-02-05T14:43:17.208Z,102223.11
2019-02-05T14:45:46.460Z,102223.53
2019-02-05T14:48:15.405Z,102231.48
2019-02-05T14:50:48.162Z,102232.18
2019-02-05T14:53:17.186Z,102227.78
2019-02-05T14:55:45.815Z,102232.26
2019-02-05T14:58:14.677Z,102234.59
2019-02-05T15:00:43.625Z,102232.89
2019-02-05T15:03:14.042Z,102232.89
2019-02-05T15:05:43.661Z,102237.02
2019-02-05T15:08:13.305Z,102236.53
2019-02-05T15:10:42.431Z,102238.34
2019-02-05T15:13:11.295Z,102245.79
2019-02-05T15:15:40.195Z,102249.68
2019-02-05T15:18:10.133Z,102250.47
2019-02-05T15:20:44.183Z,102252.50
2019-02-05T15:23:13.140Z,102253.42
2019-02-05T15:25:42.040Z,102251.98
2019-02-05T15:28:11.282Z,102245.45
2019-02-05T15:30:42.031Z,102239.39
2019-02-05T15:33:14.382Z,102241.46
2019-02-05T15:35:50.701Z,102252.25
2019-02-05T15:38:19.575Z,102250.47
2019-02-05T15:40:49.016Z,102249.96
2019-02-05T15:43:17.881Z,102241.72
2019-02-05T15:45:46.758Z,102255.86
2019-02-05T15:48:15.644Z,102256.88
2019-02-05T15:50:44.543Z,102250.45
2019-02-05T15:53:13.416Z,102254.58
2019-02-05T15:55:42.657Z,102250.72
2019-02-05T15:58:11.610Z,102250.73
2019-02-05T16:00:40.475Z,102254.59
2019-02-05T16:03:09.888Z,102257.92
2019-02-05T16:05:38.797Z,102247.13
2019-02-05T16:08:07.776Z,102251.38
2019-02-05T16:10:37.034Z,102252.53
2019-02-05T16:13:05.917Z,102254.19
2019-02-05T16:15:34.805Z,102251.75
2019-02-05T16:18:03.701Z,102255.60
2019-02-05T16:20:32.569Z,102261.52
2019-02-05T16:23:01.525Z,102257.80
2019-02-05T16:25:30.396Z,102269.23
2019-02-05T16:27:59.265Z,102264.11
2019-02-05T16:30:30.006Z,102270.02
2019-02-05T16:32:58.914Z,102270.28
2019-02-05T16:35:27.796Z,102275.17
2019-02-05T16:37:56.888Z,102272.73
2019-02-05T16:40:34.489Z,102273.63
2019-02-05T16:43:03.379Z,102279.55
2019-02-05T16:45:32.733Z,102277.50
2019-02-05T16:48:01.603Z,102276.34
2019-02-05T16:50:33.243Z,102282.90
2019-02-05T16:53:02.570Z,102279.16
2019-02-05T16:55:31.723Z,102277.25
2019-02-05T16:58:00.655Z,102280.33
2019-02-05T17:00:32.522Z,102280.57
2019-02-05T17:03:02.746Z,102289.58
2019-02-05T17:05:33.887Z,102287.91
2019-02-05T17:08:02.770Z,102288.16
2019-02-05T17:10:31.645Z,102295.77
2019-02-05T17:13:00.602Z,102293.72
2019-02-05T17:15:29.551Z,102299.88
2019-02-05T17:17:58.376Z,102298.84
2019-02-05T17:20:32.230Z,102307.59
2019-02-05T17:23:01.269Z,102302.34
2019-02-05T17:25:30.245Z,102297.30
2019-02-05T17:28:01.292Z,102310.17
2019-02-05T17:30:38.705Z,102307.45
2019-02-05T17:33:08.025Z,102306.30
2019-02-05T17:35:36.934Z,102304.77
2019-02-05T17:38:07.815Z,102305.27
2019-02-05T17:40:36.699Z,102306.84
2019-02-05T17:43:06.109Z,102303.88
2019-02-05T17:45:37.251Z,102303.22
2019-02-05T17:48:08.972Z,102308.48
2019-02-05T17:50:38.020Z,102301.92
2019-02-05T17:53:06.883Z,102306.56
2019-02-05T17:55:35.815Z,102304.23
2019-02-05T17:58:05.111Z,102299.73
2019-02-05T18:00:36.577Z,102309.27
2019-02-05T18:03:06.800Z,102310.56
2019-02-05T18:05:36.205Z,102315.70
2019-02-05T18:08:05.398Z,102313.77
2019-02-05T18:10:34.361Z,102313.50
2019-02-05T18:13:03.273Z,102318.14
2019-02-05T18:15:34.271Z,102317.10
2019-02-05T18:18:03.164Z,102317.10
2019-02-05T18:20:32.429Z,102318.02
2019-02-05T18:23:01.404Z,102315.20
2019-02-05T18:25:30.289Z,102319.92
2019-02-05T18:27:59.192Z,102319.17
2019-02-05T18:30:30.404Z,102321.74
2019-02-05T18:33:04.036Z,102316.20
2019-02-05T18:35:30.263Z,102320.46
2019-02-05T18:38:00.280Z,102323.42
2019-02-05T18:40:29.576Z,102326.78
2019-02-05T18:42:58.508Z,102325.86
2019-02-05T18:45:27.473Z,102322.53
2019-02-05T18:47:56.413Z,102322.66
2019-02-05T18:50:27.487Z,102312.36
2019-02-05T18:52:56.393Z,102315.06
2019-02-05T18:55:31.401Z,102316.48
2019-02-05T18:58:08.947Z,102313.27
2019-02-05T19:00:33.293Z,102310.44
2019-02-05T19:03:02.384Z,102320.21
2019-02-05T19:05:31.470Z,102318.92
2019-02-05T19:08:00.372Z,102319.45
2019-02-05T19:10:30.603Z,102318.02
2019-02-05T19:12:59.742Z,102324.84
2019-02-05T19:15:39.462Z,102319.67
2019-02-05T19:18:09.744Z,102321.61
2019-02-05T19:20:38.623Z,102326.89
2019-02-05T19:23:09.334Z,102329.07
2019-02-05T19:25:57.751Z,102328.31
2019-02-05T19:28:31.807Z,102326.13
2019-02-05T19:31:02.450Z,102328.43
2019-02-05T19:33:31.386Z,102330.75
2019-02-05T19:36:00.290Z,102333.07
2019-02-05T19:38:29.208Z,102325.20
2019-02-05T19:40:58.234Z,102332.93
2019-02-05T19:43:27.146Z,102328.95
2019-02-05T19:46:12.609Z,102327.41
2019-02-05T19:48:49.290Z,102332.56
2019-02-05T19:51:18.286Z,102326.39
2019-02-05T19:53:47.232Z,102332.29
2019-02-05T19:56:16.137Z,102338.47
2019-02-05T19:58:45.029Z,102336.89
2019-02-05T20:01:13.937Z,102339.75
2019-02-05T20:03:42.823Z,102338.46
2019-02-05T20:06:11.693Z,102336.79
2019-02-05T20:08:40.608Z,102333.07
2019-02-05T20:11:09.538Z,102336.14
2019-02-05T20:13:40.670Z,102336.68
2019-02-05T20:16:09.551Z,102339.75
2019-02-05T20:18:38.413Z,102335.64
2019-02-05T20:21:07.442Z,102339.72
2019-02-05T20:23:36.309Z,102348.61
2019-02-05T20:26:05.321Z,102340.75
2019-02-05T20:28:34.648Z,102340.25
2019-02-05T20:31:04.587Z,102343.58
2019-02-05T20:33:33.485Z,102345.09
2019-02-05T20:36:02.424Z,102348.22
2019-02-05T20:38:31.276Z,102354.26
2019-02-05T20:41:00.266Z,102354.26
2019-02-05T20:43:29.807Z,102349.11
2019-02-05T20:45:59.083Z,102344.22
2019-02-05T20:48:29.794Z,102348.32
2019-02-05T20:51:01.132Z,102349.06
2019-02-05T20:53:30.524Z,102351.30
2019-02-05T20:55:59.415Z,102355.37
2019-02-05T20:58:28.300Z,102354.40
2019-02-05T21:00:57.207Z,102356.83
2019-02-05T21:03:26.097Z,102359.01
2019-02-05T21:05:54.960Z,102361.83
2019-02-05T21:08:23.899Z,102358.26
2019-02-05T21:10:54.386Z,102366.33
2019-02-05T21:13:23.301Z,102358.95
2019-02-05T21:15:52.243Z,102365.97
2019-02-05T21:18:21.499Z,102368.01
2019-02-05T21:20:50.404Z,102368.01
2019-02-05T21:23:19.333Z,102371.52
2019-02-05T21:25:48.208Z,102372.16
2019-02-05T21:28:17.112Z,102373.79
2019-02-05T21:30:46.031Z,102375.47
2019-02-05T21:33:14.888Z,102376.59
2019-02-05T21:35:44.062Z,102380.55
2019-02-05T21:38:12.949Z,102388.44
2019-02-05T21:40:42.488Z,102384.42
2019-02-05T21:43:11.387Z,102385.86
2019-02-05T21:45:40.274Z,102382.13
2019-02-05T21:48:09.167Z,102382.39
2019-02-05T21:50:38.465Z,102386.81
2019-02-05T21:53:07.338Z,102383.69
2019-02-05T21:55:36.210Z,102386.81
2019-02-05T21:58:05.498Z,102388.84
2019-02-05T22:00:37.557Z,102390.12
2019-02-05T22:03:07.373Z,102388.23
2019-02-05T22:05:36.305Z,102390.13
2019-02-05T22:08:08.693Z,102393.86
2019-02-05T22:10:36.831Z,102392.44
2019-02-05T22:13:07.266Z,102387.78
2019-02-05T22:15:36.290Z,102389.45
2019-02-05T22:18:05.318Z,102389.45
2019-02-05T22:20:34.222Z,102388.56
2019-02-05T22:23:03.096Z,102387.05
2019-02-05T22:25:33.107Z,102387.30
2019-02-05T22:28:02.036Z,102384.17
2019-02-05T22:30:38.422Z,102387.55
2019-02-05T22:33:08.375Z,102381.36
2019-02-05T22:35:37.317Z,102378.79
2019-02-05T22:38:06.460Z,102375.97
2019-02-05T22:40:35.366Z,102376.20
2019-02-05T22:43:04.773Z,102369.52
2019-02-05T22:45:33.821Z,102375.89
2019-02-05T22:48:02.739Z,102373.97
2019-02-05T22:50:36.641Z,102379.75
2019-02-05T22:53:10.299Z,102376.95
2019-02-05T22:55:39.307Z,102377.98
2019-02-05T22:58:08.617Z,102379.81
2019-02-05T23:00:56.433Z,102373.89
2019-02-05T23:03:31.409Z,102373.13
2019-02-05T23:06:15.426Z,102379.50
2019-02-05T23:08:47.364Z,102375.91
2019-02-05T23:11:31.959Z,102379.57
2019-02-05T23:14:00.856Z,102372.49
2019-02-05T23:16:29.715Z,102379.83
2019-02-05T23:18:58.630Z,102376.22
2019-02-05T23:21:27.528Z,102374.94
2019-02-05T23:23:56.797Z,102378.55
2019-02-05T23:26:25.679Z,102376.85
2019-02-05T23:28:54.564Z,102382.61
2019-02-05T23:31:23.480Z,102390.84
2019-02-05T23:33:52.349Z,102388.08
2019-02-05T23:36:21.218Z,102378.78
2019-02-05T23:38:50.118Z,102382.69
2019-02-05T23:41:19.007Z,102379.58
2019-02-05T23:43:47.904Z,102389.70
2019-02-05T23:46:16.767Z,102393.66
2019-02-05T23:48:45.701Z,102394.19
2019-02-05T23:51:14.583Z,102394.43
2019-02-05T23:53:43.435Z,102402.66
2019-02-05T23:56:12.717Z,102399.91
2019-02-05T23:58:41.643Z,102394.77
